Time;durP1;ratioP1;P1;durP2;ratioP2;P2;SDS_P1;SDS_P2;PMS_P1;PMS_P2;Temp;Humidity;BMP_temperature;BMP_pressure;BME280_temperature;BME280_humidity;BME280_pressure;Samples;Min_cycle;Max_cycle;Signal;HPM_P1;HPM_P2
2021/06/09 00:02:26;;;;;;;20.03;18.03;;;;;;;13.86;100.00;98434.34;5121686;27;20701;-72
2021/06/09 00:04:54;;;;;;;21.13;19.40;;;;;;;13.92;100.00;98438.16;5121031;27;20656;-74
2021/06/09 00:07:22;;;;;;;21.03;19.37;;;;;;;13.74;100.00;98432.06;5112926;27;20209;-72
2021/06/09 00:09:50;;;;;;;19.50;17.90;;;;;;;13.81;100.00;98432.19;5116090;27;20212;-71
2021/06/09 00:12:18;;;;;;;21.50;19.83;;;;;;;13.60;100.00;98438.09;5121336;27;20580;-73
2021/06/09 00:14:46;;;;;;;20.27;18.67;;;;;;;13.42;100.00;98438.31;5120803;27;20708;-72
2021/06/09 00:17:13;;;;;;;20.43;18.63;;;;;;;13.31;100.00;98442.19;5120296;27;20205;-70
2021/06/09 00:19:41;;;;;;;20.53;18.73;;;;;;;13.23;100.00;98435.03;5121879;27;20303;-72
2021/06/09 00:22:08;;;;;;;20.07;18.23;;;;;;;13.25;100.00;98441.03;5118941;27;20205;-71
2021/06/09 00:24:37;;;;;;;20.43;18.63;;;;;;;13.34;100.00;98438.34;5119757;27;20205;-70
2021/06/09 00:27:07;;;;;;;18.97;17.57;;;;;;;13.26;100.00;98440.03;5117497;27;20228;-68
2021/06/09 00:29:34;;;;;;;20.20;18.30;;;;;;;13.12;100.00;98433.56;5120880;27;20471;-69
2021/06/09 00:32:02;;;;;;;21.33;19.27;;;;;;;13.07;100.00;98435.91;5116917;27;20603;-74
2021/06/09 00:34:29;;;;;;;20.63;18.93;;;;;;;13.18;100.00;98426.75;5120920;27;20213;-73
2021/06/09 00:36:57;;;;;;;19.90;18.10;;;;;;;13.06;100.00;98433.41;5113550;27;20204;-69
2021/06/09 00:39:24;;;;;;;20.17;18.27;;;;;;;13.02;100.00;98423.09;5117166;27;20212;-72
2021/06/09 00:41:52;;;;;;;20.47;18.63;;;;;;;13.22;100.00;98421.88;5121309;27;20208;-72
2021/06/09 00:44:21;;;;;;;20.30;18.63;;;;;;;13.10;100.00;98422.25;5122925;27;20209;-70
2021/06/09 00:46:48;;;;;;;20.97;18.87;;;;;;;13.12;100.00;98422.09;5118814;27;20668;-72
2021/06/09 00:49:16;;;;;;;20.07;18.37;;;;;;;13.01;100.00;98420.63;5120912;27;20232;-71
2021/06/09 00:51:44;;;;;;;22.13;19.80;;;;;;;12.95;100.00;98418.66;5120390;27;20205;-71
2021/06/09 00:54:11;;;;;;;19.03;17.30;;;;;;;12.88;100.00;98421.97;5119684;27;20239;-75
2021/06/09 00:56:39;;;;;;;20.50;18.40;;;;;;;12.85;100.00;98418.81;5114919;27;20577;-73
2021/06/09 00:59:07;;;;;;;19.90;18.20;;;;;;;12.83;100.00;98421.63;5120242;27;20201;-69
2021/06/09 01:01:36;;;;;;;20.30;18.13;;;;;;;12.85;100.00;98416.16;5117698;27;20202;-70
2021/06/09 01:04:05;;;;;;;18.20;16.60;;;;;;;12.80;100.00;98413.19;5118954;27;20197;-69
2021/06/09 01:06:32;;;;;;;19.60;17.70;;;;;;;12.76;100.00;98415.31;5122018;27;20229;-70
2021/06/09 01:09:00;;;;;;;19.90;18.00;;;;;;;12.76;100.00;98414.50;5122650;27;20209;-70
2021/06/09 01:11:28;;;;;;;18.07;16.47;;;;;;;12.82;100.00;98419.97;5118445;27;20577;-74
2021/06/09 01:13:56;;;;;;;19.30;17.60;;;;;;;12.92;100.00;98417.13;5120739;27;20220;-71
2021/06/09 01:16:24;;;;;;;18.03;16.37;;;;;;;12.84;100.00;98406.53;5120484;27;20224;-73
2021/06/09 01:18:54;;;;;;;19.23;17.63;;;;;;;12.85;100.00;98424.13;5123298;27;20212;-71
2021/06/09 01:21:26;;;;;;;17.43;16.00;;;;;;;12.80;100.00;98415.84;5122726;27;20201;-73
2021/06/09 01:23:54;;;;;;;18.67;16.80;;;;;;;12.78;100.00;98417.84;5118008;27;20197;-69
2021/06/09 01:26:24;;;;;;;18.93;17.33;;;;;;;12.81;100.00;98417.50;5122116;27;20767;-70
2021/06/09 01:28:53;;;;;;;19.37;17.70;;;;;;;12.79;100.00;98420.31;5115929;27;20687;-71
2021/06/09 01:31:20;;;;;;;18.10;16.50;;;;;;;12.74;100.00;98420.84;5119379;27;20197;-71
2021/06/09 01:33:48;;;;;;;17.20;15.57;;;;;;;12.73;100.00;98419.16;5117476;27;20205;-71
2021/06/09 01:36:15;;;;;;;16.23;14.80;;;;;;;12.82;100.00;98421.81;5115275;27;20220;-71
2021/06/09 01:38:44;;;;;;;17.60;16.10;;;;;;;12.74;100.00;98422.66;5115690;27;20679;-74
2021/06/09 01:41:12;;;;;;;17.13;15.63;;;;;;;12.73;100.00;98424.50;5118758;27;20201;-69
2021/06/09 01:43:39;;;;;;;17.63;16.27;;;;;;;12.86;100.00;98420.47;5120355;27;20561;-72
2021/06/09 01:46:06;;;;;;;18.90;17.20;;;;;;;12.83;100.00;98423.47;5122797;27;20700;-70
2021/06/09 01:48:34;;;;;;;17.53;16.13;;;;;;;12.82;100.00;98425.28;5120485;27;20594;-69
2021/06/09 01:51:02;;;;;;;19.87;18.07;;;;;;;12.81;100.00;98423.63;5121690;27;20201;-75
2021/06/09 01:53:30;;;;;;;19.80;18.30;;;;;;;12.89;100.00;98430.78;5121534;27;20220;-70
2021/06/09 01:56:00;;;;;;;21.80;19.90;;;;;;;12.94;100.00;98425.78;5120911;27;20233;-70
2021/06/09 01:58:27;;;;;;;21.40;19.57;;;;;;;12.93;100.00;98426.78;5121833;27;20216;-72
2021/06/09 02:00:55;;;;;;;21.27;19.50;;;;;;;12.99;100.00;98431.41;5115901;27;20567;-71
2021/06/09 02:03:23;;;;;;;20.87;19.10;;;;;;;13.02;100.00;98433.75;5116446;27;20210;-71
2021/06/09 02:05:50;;;;;;;20.77;19.07;;;;;;;12.98;100.00;98435.06;5119964;27;20315;-70
2021/06/09 02:08:18;;;;;;;20.90;18.93;;;;;;;13.03;100.00;98434.59;5118369;27;20685;-72
2021/06/09 02:10:45;;;;;;;21.40;19.60;;;;;;;12.92;100.00;98441.06;5118225;27;20225;-71
2021/06/09 02:13:16;;;;;;;22.47;20.50;;;;;;;13.01;100.00;98442.72;5116380;27;20200;-74
2021/06/09 02:15:44;;;;;;;23.97;21.87;;;;;;;13.05;100.00;98432.59;5118830;27;20616;-71
2021/06/09 02:18:13;;;;;;;21.80;20.10;;;;;;;13.07;100.00;98438.56;5118921;27;20223;-72
2021/06/09 02:20:44;;;;;;;23.50;21.27;;;;;;;13.11;100.00;98442.53;5118256;27;20254;-73
2021/06/09 02:23:12;;;;;;;23.30;21.20;;;;;;;13.12;100.00;98443.38;5118266;27;20232;-72
2021/06/09 02:25:42;;;;;;;23.07;20.83;;;;;;;13.07;100.00;98438.56;5112355;27;20723;-72
2021/06/09 02:28:10;;;;;;;25.17;22.77;;;;;;;13.16;100.00;98442.03;5113455;27;20208;-70
2021/06/09 02:30:41;;;;;;;22.73;20.73;;;;;;;13.21;100.00;98447.69;5117246;27;20196;-72
2021/06/09 02:33:09;;;;;;;23.13;21.13;;;;;;;13.09;100.00;98447.22;5112280;27;20198;-71
2021/06/09 02:35:38;;;;;;;24.10;21.70;;;;;;;13.04;100.00;98441.56;5117454;27;20221;-72
2021/06/09 02:38:07;;;;;;;23.37;21.17;;;;;;;13.15;100.00;98440.38;5117783;27;20699;-71
2021/06/09 02:40:35;;;;;;;22.70;20.80;;;;;;;13.25;100.00;98438.34;5115078;27;20226;-71
2021/06/09 02:43:03;;;;;;;25.07;22.77;;;;;;;13.25;100.00;98442.84;5121881;27;20201;-69
2021/06/09 02:45:30;;;;;;;22.37;20.53;;;;;;;13.40;100.00;98440.31;5119468;28;20222;-72
2021/06/09 02:48:03;;;;;;;24.43;21.90;;;;;;;13.41;100.00;98442.81;5117810;27;20225;-72
2021/06/09 02:50:30;;;;;;;24.33;22.30;;;;;;;13.31;100.00;98442.19;5117059;27;20692;-71
2021/06/09 02:53:03;;;;;;;23.03;21.10;;;;;;;13.25;100.00;98445.50;5118945;27;20202;-72
2021/06/09 02:55:39;;;;;;;24.20;21.83;;;;;;;13.36;100.00;98444.31;5113996;27;20225;-69
2021/06/09 02:58:12;;;;;;;24.87;22.70;;;;;;;13.45;100.00;98444.16;5112978;27;20201;-70
2021/06/09 03:00:46;;;;;;;23.80;21.77;;;;;;;13.40;100.00;98446.47;5116843;27;20205;-69
2021/06/09 03:03:18;;;;;;;25.30;22.87;;;;;;;13.41;100.00;98437.47;5118720;27;20533;-70
2021/06/09 03:05:49;;;;;;;25.57;23.27;;;;;;;13.50;100.00;98443.66;5122601;27;20252;-69
2021/06/09 03:08:21;;;;;;;26.40;24.20;;;;;;;13.65;100.00;98442.91;5119480;27;20204;-70
2021/06/09 03:10:52;;;;;;;26.13;23.70;;;;;;;13.65;100.00;98446.44;5118011;27;20238;-73
2021/06/09 03:13:28;;;;;;;24.57;22.47;;;;;;;13.63;100.00;98440.41;5123423;27;20204;-70
2021/06/09 03:15:59;;;;;;;24.60;22.37;;;;;;;13.63;100.00;98444.94;5121960;27;20216;-72
2021/06/09 03:18:32;;;;;;;23.80;21.83;;;;;;;13.62;100.00;98443.28;5121804;27;20208;-71
2021/06/09 03:21:02;;;;;;;24.73;22.53;;;;;;;13.60;100.00;98446.09;5121071;27;20212;-68
2021/06/09 03:23:43;;;;;;;23.87;21.70;;;;;;;13.56;100.00;98452.75;5124224;27;20209;-70
2021/06/09 03:26:12;;;;;;;24.90;22.30;;;;;;;13.95;100.00;98432.47;5118005;27;20228;-69
2021/06/09 03:28:47;;;;;;;25.00;22.80;;;;;;;13.84;100.00;98428.34;5122801;27;20201;-72
2021/06/09 03:31:20;;;;;;;25.53;23.23;;;;;;;13.81;100.00;98428.69;5121892;27;20671;-71
2021/06/09 03:33:51;;;;;;;24.90;22.67;;;;;;;13.75;100.00;98444.38;5119093;27;20200;-70
2021/06/09 03:36:22;;;;;;;24.47;22.47;;;;;;;13.76;100.00;98445.19;5120895;27;20225;-72
2021/06/09 03:38:56;;;;;;;24.17;22.20;;;;;;;13.71;100.00;98450.22;5122979;27;20224;-68
2021/06/09 03:41:26;;;;;;;26.73;24.23;;;;;;;13.72;100.00;98450.06;5117213;27;20636;-69
2021/06/09 03:43:54;;;;;;;25.37;23.10;;;;;;;13.71;100.00;98455.53;5120611;27;20445;-69
2021/06/09 03:46:23;;;;;;;25.80;23.77;;;;;;;13.79;100.00;98465.34;5120219;27;20232;-70
2021/06/09 03:48:54;;;;;;;24.83;22.73;;;;;;;13.91;100.00;98452.47;5122105;27;20205;-70
2021/06/09 03:51:24;;;;;;;25.50;23.23;;;;;;;13.84;100.00;98449.66;5121248;27;20208;-74
2021/06/09 03:53:53;;;;;;;26.40;24.03;;;;;;;13.88;100.00;98458.97;5119342;27;20649;-75
2021/06/09 03:56:20;;;;;;;22.43;20.53;;;;;;;13.96;100.00;98452.78;5121141;27;20242;-74
2021/06/09 03:58:50;;;;;;;25.03;22.87;;;;;;;13.94;100.00;98450.28;5118256;27;20208;-74
2021/06/09 04:01:18;;;;;;;24.20;22.10;;;;;;;13.93;100.00;98453.94;5120167;27;20222;-75
2021/06/09 04:03:47;;;;;;;23.67;21.67;;;;;;;14.02;100.00;98457.41;5121902;27;20655;-71
2021/06/09 04:06:18;;;;;;;25.40;23.07;;;;;;;14.08;100.00;98461.22;5123280;27;20220;-73
2021/06/09 04:08:47;;;;;;;25.60;23.40;;;;;;;14.00;100.00;98464.75;5119778;27;20262;-74
2021/06/09 04:11:15;;;;;;;22.93;21.00;;;;;;;14.15;100.00;98460.31;5119228;27;20278;-73
2021/06/09 04:13:43;;;;;;;23.73;21.73;;;;;;;14.17;100.00;98473.47;5117579;27;20212;-73
2021/06/09 04:16:16;;;;;;;24.87;22.57;;;;;;;14.05;100.00;98457.06;5124662;27;20500;-73
2021/06/09 04:18:46;;;;;;;24.63;22.43;;;;;;;14.11;100.00;98458.19;5118161;27;20216;-73
2021/06/09 04:21:15;;;;;;;23.60;21.50;;;;;;;14.16;100.00;98463.81;5112502;27;20448;-73
2021/06/09 04:23:44;;;;;;;23.37;21.47;;;;;;;14.28;100.00;98459.75;5118039;27;20201;-74
2021/06/09 04:26:15;;;;;;;25.53;23.33;;;;;;;14.17;100.00;98462.81;5118896;27;20232;-73
2021/06/09 04:28:43;;;;;;;23.57;21.43;;;;;;;14.25;100.00;98460.09;5117427;27;20205;-74
2021/06/09 04:31:12;;;;;;;25.30;22.97;;;;;;;14.29;100.00;98464.06;5122837;27;20201;-74
2021/06/09 04:33:40;;;;;;;22.97;21.10;;;;;;;14.34;100.00;98468.88;5120194;27;20227;-72
2021/06/09 04:36:11;;;;;;;23.60;21.73;;;;;;;14.41;100.00;98471.69;5116391;27;20619;-74
2021/06/09 04:38:39;;;;;;;23.73;21.63;;;;;;;14.27;100.00;98470.59;5120142;27;20193;-73
2021/06/09 04:41:09;;;;;;;23.77;21.37;;;;;;;14.30;100.00;98478.25;5119868;27;20216;-73
2021/06/09 04:43:37;;;;;;;26.07;23.77;;;;;;;14.25;100.00;98468.09;5113138;27;20212;-74
2021/06/09 04:46:04;;;;;;;23.87;21.77;;;;;;;14.25;100.00;98473.41;5119284;27;20221;-74
2021/06/09 04:48:32;;;;;;;23.90;22.00;;;;;;;14.27;100.00;98473.25;5120496;27;20228;-74
2021/06/09 04:51:00;;;;;;;24.93;22.93;;;;;;;14.45;100.00;98472.97;5120358;27;20593;-74
2021/06/09 04:53:28;;;;;;;25.30;23.00;;;;;;;14.50;100.00;98472.44;5121874;27;20197;-73
2021/06/09 04:55:56;;;;;;;25.60;23.43;;;;;;;14.51;100.00;98474.09;5115613;27;20651;-73
2021/06/09 04:58:26;;;;;;;27.90;25.53;;;;;;;14.60;100.00;98475.72;5110659;27;20228;-73
2021/06/09 05:00:53;;;;;;;28.27;25.97;;;;;;;14.52;100.00;98479.25;5117708;27;20205;-74
2021/06/09 05:03:21;;;;;;;28.40;25.97;;;;;;;14.47;100.00;98463.78;5117028;27;20605;-73
2021/06/09 05:05:50;;;;;;;27.50;25.17;;;;;;;14.56;100.00;98469.03;5118016;27;20220;-72
2021/06/09 05:08:18;;;;;;;26.60;24.17;;;;;;;14.65;100.00;98467.16;5113116;27;20228;-73
2021/06/09 05:10:46;;;;;;;27.97;25.67;;;;;;;14.66;100.00;98461.66;5105993;27;20193;-74
2021/06/09 05:13:21;;;;;;;28.63;26.10;;;;;;;14.68;100.00;98469.47;5113439;27;20266;-73
2021/06/09 05:15:52;;;;;;;27.70;25.20;;;;;;;14.80;100.00;98475.25;5118423;27;20220;-74
2021/06/09 05:18:21;;;;;;;29.47;27.07;;;;;;;14.75;100.00;98473.94;5117311;27;20205;-73
2021/06/09 05:20:51;;;;;;;27.33;24.93;;;;;;;14.83;100.00;98478.41;5121125;27;20201;-73
2021/06/09 05:23:21;;;;;;;28.27;25.57;;;;;;;14.92;100.00;98470.31;5118782;27;20229;-73
2021/06/09 05:25:49;;;;;;;26.63;24.33;;;;;;;14.95;100.00;98478.78;5115050;27;20479;-73
2021/06/09 05:28:17;;;;;;;27.03;24.50;;;;;;;15.07;100.00;98478.34;5120733;27;20232;-73
2021/06/09 05:30:45;;;;;;;26.23;24.07;;;;;;;15.03;100.00;98484.06;5118403;27;20208;-73
2021/06/09 05:33:15;;;;;;;27.40;25.20;;;;;;;15.09;100.00;98484.34;5114546;27;20197;-72
2021/06/09 05:35:43;;;;;;;27.67;25.33;;;;;;;15.24;100.00;98484.38;5119822;27;20224;-73
2021/06/09 05:38:10;;;;;;;26.47;24.37;;;;;;;15.14;100.00;98487.28;5120138;27;20217;-73
2021/06/09 05:40:38;;;;;;;26.90;24.70;;;;;;;15.07;100.00;98487.19;5118211;27;20204;-75
2021/06/09 05:43:05;;;;;;;27.40;24.97;;;;;;;15.09;100.00;98485.16;5114132;27;20683;-72
2021/06/09 05:45:34;;;;;;;27.60;25.30;;;;;;;15.14;100.00;98487.28;5114874;27;20708;-74
2021/06/09 05:48:01;;;;;;;28.83;26.47;;;;;;;15.20;100.00;98489.22;5116653;27;20220;-74
2021/06/09 05:50:32;;;;;;;30.97;27.93;;;;;;;15.29;100.00;98490.78;5119381;27;20212;-74
2021/06/09 05:53:04;;;;;;;29.43;26.83;;;;;;;15.38;100.00;98493.41;5119200;27;20614;-73
2021/06/09 05:55:34;;;;;;;30.57;27.73;;;;;;;15.37;100.00;98492.56;5115976;27;20546;-72
2021/06/09 05:58:04;;;;;;;29.87;27.37;;;;;;;15.38;100.00;98496.09;5113682;27;20200;-75
2021/06/09 06:00:55;;;;;;;30.60;27.90;;;;;;;15.47;100.00;98485.09;5118290;27;20285;-74
2021/06/09 06:03:24;;;;;;;30.57;27.87;;;;;;;15.39;100.00;98487.88;5121815;27;20316;-76
2021/06/09 06:05:56;;;;;;;28.57;26.10;;;;;;;15.38;100.00;98496.91;5117290;27;20366;-72
2021/06/09 06:08:25;;;;;;;29.53;27.13;;;;;;;15.57;100.00;98489.38;5119623;27;20225;-72
2021/06/09 06:10:53;;;;;;;31.10;28.27;;;;;;;15.49;100.00;98487.59;5118619;27;20200;-70
2021/06/09 06:13:21;;;;;;;29.67;27.13;;;;;;;15.58;100.00;98491.03;5119518;27;20208;-70
2021/06/09 06:15:53;;;;;;;30.67;27.87;;;;;;;15.59;100.00;98488.16;5112363;27;20225;-72
2021/06/09 06:18:29;;;;;;;33.20;30.33;;;;;;;15.77;100.00;98489.63;5116407;27;20220;-73
2021/06/09 06:20:58;;;;;;;32.20;29.40;;;;;;;15.80;100.00;98485.75;5118230;27;20196;-72
2021/06/09 06:23:26;;;;;;;32.73;30.03;;;;;;;15.86;100.00;98485.84;5116694;27;20213;-73
2021/06/09 06:26:08;;;;;;;34.37;31.20;;;;;;;15.78;100.00;98480.59;5119852;27;20220;-76
2021/06/09 06:28:38;;;;;;;33.43;30.57;;;;;;;15.93;100.00;98480.63;5117540;28;20354;-72
2021/06/09 06:31:10;;;;;;;32.43;29.43;;;;;;;16.01;100.00;98487.69;5121402;28;20228;-73
2021/06/09 06:33:39;;;;;;;35.20;32.10;;;;;;;16.24;100.00;98481.38;5116129;27;20205;-74
2021/06/09 06:36:09;;;;;;;33.97;30.77;;;;;;;16.22;100.00;98483.41;5123225;27;20217;-70
2021/06/09 06:38:37;;;;;;;34.83;31.87;;;;;;;16.26;100.00;98482.84;5122689;27;20220;-69
2021/06/09 06:41:06;;;;;;;33.23;30.43;;;;;;;16.38;100.00;98477.00;5122948;27;20205;-72
2021/06/09 06:43:35;;;;;;;34.37;31.53;;;;;;;16.30;100.00;98476.13;5114072;27;20213;-70
2021/06/09 06:46:04;;;;;;;34.97;32.00;;;;;;;16.41;100.00;98476.63;5124952;27;20225;-72
2021/06/09 06:48:33;;;;;;;32.43;29.73;;;;;;;16.47;100.00;98465.97;5121931;27;20597;-73
2021/06/09 06:51:01;;;;;;;33.77;30.77;;;;;;;16.51;100.00;98474.47;5122070;27;20197;-73
2021/06/09 06:53:30;;;;;;;35.23;32.13;;;;;;;16.61;100.00;98474.16;5120722;27;20691;-71
2021/06/09 06:55:58;;;;;;;33.37;30.47;;;;;;;16.79;100.00;98479.03;5119964;27;20225;-71
2021/06/09 06:58:27;;;;;;;33.00;30.10;;;;;;;17.00;100.00;98466.66;5120837;27;20447;-72
2021/06/09 07:00:54;;;;;;;31.13;28.63;;;;;;;16.90;100.00;98467.00;5121039;27;20298;-72
2021/06/09 07:03:22;;;;;;;31.20;28.53;;;;;;;16.81;100.00;98468.97;5124254;27;20315;-72
2021/06/09 07:05:50;;;;;;;33.03;30.33;;;;;;;17.15;100.00;98469.25;5121299;27;20223;-73
2021/06/09 07:08:17;;;;;;;31.50;28.73;;;;;;;16.91;100.00;98468.66;5121058;27;20314;-72
2021/06/09 07:10:46;;;;;;;30.47;27.80;;;;;;;16.99;100.00;98475.72;5116896;27;20205;-73
2021/06/09 07:13:14;;;;;;;31.23;28.60;;;;;;;16.95;100.00;98471.75;5109900;27;20205;-72
2021/06/09 07:15:43;;;;;;;28.87;26.57;;;;;;;16.99;100.00;98475.72;5123088;27;20313;-71
2021/06/09 07:18:11;;;;;;;30.47;27.77;;;;;;;16.75;100.00;98475.91;5116340;27;20209;-70
2021/06/09 07:20:40;;;;;;;32.43;29.53;;;;;;;17.06;100.00;98474.75;5119144;27;20903;-72
2021/06/09 07:23:07;;;;;;;30.83;28.27;;;;;;;17.31;100.00;98484.22;5119029;27;20497;-70
2021/06/09 07:25:35;;;;;;;30.60;27.80;;;;;;;17.46;100.00;98495.66;5119640;27;20225;-73
2021/06/09 07:28:05;;;;;;;29.73;27.33;;;;;;;17.67;100.00;98485.88;5116102;27;20236;-71
2021/06/09 07:30:35;;;;;;;27.17;24.97;;;;;;;17.70;100.00;98490.84;5122850;27;20288;-74
2021/06/09 07:33:03;;;;;;;26.77;24.47;;;;;;;17.70;100.00;98493.50;5118237;27;20511;-72
2021/06/09 07:35:31;;;;;;;30.13;27.53;;;;;;;17.63;100.00;98496.19;5112313;27;20263;-71
2021/06/09 07:38:02;;;;;;;28.10;25.70;;;;;;;17.69;100.00;98499.09;5123066;27;20230;-72
2021/06/09 07:40:33;;;;;;;27.83;25.53;;;;;;;17.83;100.00;98497.31;5116385;27;20404;-72
2021/06/09 07:43:07;;;;;;;29.47;27.13;;;;;;;17.92;100.00;98504.97;5121761;27;20598;-72
2021/06/09 07:45:35;;;;;;;28.77;26.57;;;;;;;18.19;100.00;98507.78;5119105;27;20224;-73
2021/06/09 07:48:03;;;;;;;26.47;24.40;;;;;;;18.23;100.00;98501.00;5116628;27;20572;-71
2021/06/09 07:50:35;;;;;;;27.60;25.30;;;;;;;18.24;100.00;98512.56;5117545;27;20719;-71
2021/06/09 07:53:06;;;;;;;29.43;26.80;;;;;;;18.46;100.00;98497.16;5115728;27;20253;-71
2021/06/09 07:55:34;;;;;;;27.20;24.97;;;;;;;18.37;100.00;98509.91;5119047;27;20231;-74
2021/06/09 07:58:03;;;;;;;25.13;23.17;;;;;;;18.41;100.00;98510.34;5116458;27;20852;-74
2021/06/09 08:00:32;;;;;;;25.43;23.27;;;;;;;18.25;100.00;98516.06;5115144;27;20703;-71
2021/06/09 08:03:00;;;;;;;24.80;22.90;;;;;;;18.17;100.00;98514.38;5118225;27;20619;-73
2021/06/09 08:05:28;;;;;;;25.70;23.50;;;;;;;18.42;100.00;98514.69;5120185;27;21098;-71
2021/06/09 08:07:56;;;;;;;25.67;23.73;;;;;;;18.32;100.00;98519.59;5116739;27;20236;-73
2021/06/09 08:10:41;;;;;;;24.97;22.87;;;;;;;18.34;100.00;98515.69;5119597;27;20248;-72
2021/06/09 08:13:10;;;;;;;24.83;22.27;;;;;;;18.35;100.00;98519.19;5122509;27;20205;-74
2021/06/09 08:15:39;;;;;;;23.37;21.17;;;;;;;18.51;100.00;98518.84;5120368;27;20591;-72
2021/06/09 08:18:07;;;;;;;23.27;21.47;;;;;;;18.48;100.00;98516.56;5119733;27;20192;-71
2021/06/09 08:20:36;;;;;;;21.80;20.07;;;;;;;18.42;100.00;98520.06;5119925;27;20197;-72
2021/06/09 08:23:03;;;;;;;20.50;18.90;;;;;;;18.40;100.00;98523.94;5118111;27;20198;-73
2021/06/09 08:25:31;;;;;;;19.57;18.10;;;;;;;18.57;100.00;98524.41;5120727;27;20220;-75
2021/06/09 08:27:58;;;;;;;19.30;17.80;;;;;;;18.68;100.00;98514.94;5119397;27;20234;-74
2021/06/09 08:30:27;;;;;;;16.93;15.63;;;;;;;18.66;100.00;98515.97;5118257;27;20827;-71
2021/06/09 08:32:56;;;;;;;13.93;13.03;;;;;;;18.83;94.50;98517.44;5119565;27;20664;-72
2021/06/09 08:35:25;;;;;;;14.27;13.27;;;;;;;18.88;97.75;98517.66;5118072;27;20448;-72
2021/06/09 08:37:53;;;;;;;15.03;13.73;;;;;;;18.93;95.11;98520.56;5119530;27;20661;-72
2021/06/09 08:40:20;;;;;;;12.87;11.77;;;;;;;18.91;93.59;98527.97;5120920;27;20197;-72
2021/06/09 08:42:48;;;;;;;12.60;11.60;;;;;;;18.94;93.74;98530.25;5120330;27;20359;-70
2021/06/09 08:45:16;;;;;;;13.03;11.97;;;;;;;18.75;95.56;98521.16;5121014;27;20796;-72
2021/06/09 08:47:44;;;;;;;12.03;11.13;;;;;;;18.84;95.55;98519.91;5116796;27;20484;-71
2021/06/09 08:50:13;;;;;;;11.03;10.33;;;;;;;18.82;93.15;98531.91;5119129;27;20196;-72
2021/06/09 08:52:45;;;;;;;11.50;10.70;;;;;;;19.07;87.80;98524.09;5118648;27;20280;-73
2021/06/09 08:55:13;;;;;;;9.37;8.67;;;;;;;19.01;87.90;98520.38;5118572;27;20613;-71
2021/06/09 08:57:48;;;;;;;9.10;8.40;;;;;;;18.96;86.42;98525.50;5116996;27;20196;-73
2021/06/09 09:00:18;;;;;;;8.03;7.53;;;;;;;19.17;85.43;98529.06;5116514;27;20292;-72
2021/06/09 09:02:46;;;;;;;7.90;7.40;;;;;;;19.04;86.87;98527.19;5117325;27;20680;-74
2021/06/09 09:05:15;;;;;;;6.20;5.80;;;;;;;18.92;81.32;98525.06;5116556;27;20720;-71
2021/06/09 09:07:43;;;;;;;5.67;5.33;;;;;;;19.04;82.10;98527.19;5117060;27;20282;-71
2021/06/09 09:10:14;;;;;;;5.50;5.10;;;;;;;19.19;79.09;98532.38;5117203;27;20216;-72
2021/06/09 09:12:42;;;;;;;5.87;5.40;;;;;;;19.00;80.99;98534.84;5117238;27;20701;-75
2021/06/09 09:15:10;;;;;;;4.87;4.60;;;;;;;19.11;79.79;98536.09;5119214;27;20216;-72
2021/06/09 09:18:00;;;;;;;5.60;5.10;;;;;;;18.97;82.33;98535.22;5117971;27;20205;-70
2021/06/09 09:20:30;;;;;;;5.93;5.40;;;;;;;19.14;80.34;98532.19;5113946;27;20208;-72
2021/06/09 09:22:59;;;;;;;5.20;4.90;;;;;;;19.33;79.42;98528.63;5115368;27;20205;-72
2021/06/09 09:25:28;;;;;;;5.03;4.73;;;;;;;19.21;82.81;98538.38;5118742;27;20274;-74
2021/06/09 09:27:57;;;;;;;5.60;5.23;;;;;;;19.20;84.20;98537.53;5116900;27;20201;-73
2021/06/09 09:30:26;;;;;;;6.40;5.30;;;;;;;19.45;80.72;98530.69;5112767;27;20231;-70
2021/06/09 09:32:59;;;;;;;6.13;5.63;;;;;;;18.99;86.64;98533.19;5114737;27;20220;-74
2021/06/09 09:35:29;;;;;;;6.60;6.10;;;;;;;18.89;88.31;98544.28;5114001;27;20284;-71
2021/06/09 09:38:10;;;;;;;6.20;5.63;;;;;;;18.89;90.50;98535.41;5116816;27;20664;-73
2021/06/09 09:40:38;;;;;;;5.60;5.23;;;;;;;18.85;91.14;98535.00;5114499;27;20370;-69
2021/06/09 09:43:06;;;;;;;5.43;5.07;;;;;;;19.00;88.87;98532.16;5111687;27;20635;-72
2021/06/09 09:45:36;;;;;;;5.93;5.43;;;;;;;19.13;90.31;98530.50;5118767;27;20227;-70
2021/06/09 09:48:12;;;;;;;6.63;5.90;;;;;;;19.06;87.70;98542.06;5114650;27;20708;-72
2021/06/09 09:50:43;;;;;;;6.63;6.13;;;;;;;19.03;92.83;98534.41;5114684;27;20208;-71
2021/06/09 09:53:18;;;;;;;6.67;6.07;;;;;;;19.26;86.78;98537.72;5115403;27;20574;-71
2021/06/09 09:55:57;;;;;;;7.03;6.63;;;;;;;19.16;92.31;98525.53;5111873;27;20236;-71
2021/06/09 09:58:26;;;;;;;7.43;6.80;;;;;;;19.59;86.96;98532.34;5111935;27;20202;-73
2021/06/09 10:00:54;;;;;;;5.77;5.47;;;;;;;19.47;85.43;98526.78;5117484;27;20308;-73
2021/06/09 10:03:21;;;;;;;4.73;4.40;;;;;;;19.40;82.85;98528.66;5116799;27;20217;-72
2021/06/09 10:05:50;;;;;;;3.73;3.53;;;;;;;19.59;76.98;98526.13;5118698;27;20221;-72
2021/06/09 10:08:26;;;;;;;4.07;3.77;;;;;;;19.64;80.80;98529.84;5114640;27;20208;-74
2021/06/09 10:10:57;;;;;;;4.10;3.83;;;;;;;19.80;80.03;98525.03;5119308;27;20360;-73
2021/06/09 10:13:29;;;;;;;3.93;3.73;;;;;;;20.27;75.44;98538.38;5114778;27;20212;-71
2021/06/09 10:15:57;;;;;;;4.07;3.77;;;;;;;20.01;75.17;98537.41;5118336;27;20231;-73
2021/06/09 10:18:25;;;;;;;3.70;3.50;;;;;;;20.31;75.09;98528.00;5118876;27;20225;-72
2021/06/09 10:20:55;;;;;;;3.97;3.77;;;;;;;20.15;73.99;98534.69;5114507;27;20200;-70
2021/06/09 10:23:36;;;;;;;3.50;3.30;;;;;;;20.62;72.18;98537.13;5117925;27;20662;-72
2021/06/09 10:26:11;;;;;;;3.37;3.07;;;;;;;20.71;72.41;98529.66;5115827;28;20224;-73
2021/06/09 10:29:03;;;;;;;3.47;3.27;;;;;;;20.94;71.72;98526.41;5114713;27;20216;-72
2021/06/09 10:31:31;;;;;;;3.30;3.20;;;;;;;21.00;71.75;98528.22;5117343;28;20205;-74
2021/06/09 10:33:59;;;;;;;2.60;2.50;;;;;;;20.80;69.30;98526.50;5119143;27;20216;-71
2021/06/09 10:36:28;;;;;;;2.60;2.33;;;;;;;20.84;69.24;98526.06;5117067;27;20247;-72
2021/06/09 10:38:56;;;;;;;3.10;3.00;;;;;;;21.20;66.57;98532.63;5119168;27;20722;-72
2021/06/09 10:41:25;;;;;;;2.77;2.63;;;;;;;21.31;67.00;98520.31;5119327;27;20672;-71
2021/06/09 10:43:56;;;;;;;2.63;2.50;;;;;;;21.05;68.28;98523.03;5117033;27;20197;-73
2021/06/09 10:46:26;;;;;;;2.77;2.57;;;;;;;21.33;66.38;98515.53;5117784;28;20232;-69
2021/06/09 10:48:56;;;;;;;2.70;2.50;;;;;;;21.27;67.08;98519.94;5118165;27;20216;-72
2021/06/09 10:51:25;;;;;;;2.13;2.03;;;;;;;21.31;65.41;98515.75;5118965;27;20605;-74
2021/06/09 10:53:54;;;;;;;2.70;2.60;;;;;;;21.51;64.25;98515.56;5117087;27;20565;-70
2021/06/09 10:56:23;;;;;;;2.60;2.50;;;;;;;21.73;64.70;98517.88;5120005;27;20591;-73
2021/06/09 10:58:50;;;;;;;3.10;2.53;;;;;;;21.43;63.36;98515.03;5115139;28;20745;-73
2021/06/09 11:01:22;;;;;;;2.20;2.10;;;;;;;21.24;63.01;98504.19;5118115;27;20440;-72
2021/06/09 11:03:51;;;;;;;2.40;2.30;;;;;;;21.37;63.27;98505.94;5112765;27;20250;-74
2021/06/09 11:06:18;;;;;;;2.57;2.47;;;;;;;21.98;61.45;98514.28;5116897;27;20323;-74
2021/06/09 11:08:45;;;;;;;2.37;2.17;;;;;;;22.76;56.17;98513.69;5115315;27;20220;-72
2021/06/09 11:11:21;;;;;;;2.13;2.03;;;;;;;24.01;50.22;98506.56;5115093;27;20688;-70
2021/06/09 11:13:49;;;;;;;2.43;2.00;;;;;;;23.65;52.81;98507.41;5116208;27;20231;-75
2021/06/09 11:16:22;;;;;;;2.03;1.97;;;;;;;24.62;51.96;98500.69;5109404;27;20225;-73
2021/06/09 11:18:50;;;;;;;2.30;2.10;;;;;;;24.62;48.92;98498.78;5111471;27;20205;-73
2021/06/09 11:21:25;;;;;;;2.30;2.20;;;;;;;24.68;49.90;98497.00;5111639;27;20286;-72
2021/06/09 11:23:53;;;;;;;1.87;1.77;;;;;;;24.66;49.67;98499.13;5121634;27;20204;-70
2021/06/09 11:26:26;;;;;;;2.20;2.13;;;;;;;24.42;51.02;98496.53;5117163;27;20227;-70